sensor_id;sensor_type;location;lat;lon;timestamp;temperature;humidity
20973;DHT22;10645;52.370;13.314;2023-02-01T00:02:00;4.70;99.90
20973;DHT22;10645;52.370;13.314;2023-02-01T00:04:27;4.70;99.90
20973;DHT22;10645;52.370;13.314;2023-02-01T00:06:53;4.80;99.90
20973;DHT22;10645;52.370;13.314;2023-02-01T00:09:19;4.80;99.90
20973;DHT22;10645;52.370;13.314;2023-02-01T00:11:45;4.80;99.90
20973;DHT22;10645;52.370;13.314;2023-02-01T00:14:12;4.70;99.90
20973;DHT22;10645;52.370;13.314;2023-02-01T00:16:38;4.70;99.90
20973;DHT22;10645;52.370;13.314;2023-02-01T00:19:07;4.60;99.90
20973;DHT22;10645;52.370;13.314;2023-02-01T00:21:35;4.60;99.90
20973;DHT22;10645;52.370;13.314;2023-02-01T00:24:01;4.70;99.90
20973;DHT22;10645;52.370;13.314;2023-02-01T00:26:33;4.70;99.90
20973;DHT22;10645;52.370;13.314;2023-02-01T00:29:01;4.70;99.90
20973;DHT22;10645;52.370;13.314;2023-02-01T00:31:28;4.80;99.90
20973;DHT22;10645;52.370;13.314;2023-02-01T00:33:54;4.80;99.90
20973;DHT22;10645;52.370;13.314;2023-02-01T00:36:20;4.90;99.90
20973;DHT22;10645;52.370;13.314;2023-02-01T00:38:46;4.90;99.90
20973;DHT22;10645;52.370;13.314;2023-02-01T00:41:13;5.00;99.90
20973;DHT22;10645;52.370;13.314;2023-02-01T00:43:40;5.00;99.90
20973;DHT22;10645;52.370;13.314;2023-02-01T00:46:07;5.00;99.90
20973;DHT22;10645;52.370;13.314;2023-02-01T00:48:33;4.90;99.90
20973;DHT22;10645;52.370;13.314;2023-02-01T00:51:00;4.80;99.90
20973;DHT22;10645;52.370;13.314;2023-02-01T00:53:27;4.70;99.90
20973;DHT22;10645;52.370;13.314;2023-02-01T00:55:53;4.60;99.90
20973;DHT22;10645;52.370;13.314;2023-02-01T00:58:19;4.60;99.90
20973;DHT22;10645;52.370;13.314;2023-02-01T01:00:46;4.50;99.90
20973;DHT22;10645;52.370;13.314;2023-02-01T01:03:13;4.50;99.90
20973;DHT22;10645;52.370;13.314;2023-02-01T01:05:46;4.50;99.90
20973;DHT22;10645;52.370;13.314;2023-02-01T01:08:13;4.40;99.90
20973;DHT22;10645;52.370;13.314;2023-02-01T01:10:39;4.40;99.90
20973;DHT22;10645;52.370;13.314;2023-02-01T01:13:05;4.30;99.90
20973;DHT22;10645;52.370;13.314;2023-02-01T01:15:36;4.40;99.90
20973;DHT22;10645;52.370;13.314;2023-02-01T01:18:02;4.40;99.90
20973;DHT22;10645;52.370;13.314;2023-02-01T01:20:28;4.50;99.90
20973;DHT22;10645;52.370;13.314;2023-02-01T01:22:54;4.60;99.90
20973;DHT22;10645;52.370;13.314;2023-02-01T01:25:20;4.50;99.90
20973;DHT22;10645;52.370;13.314;2023-02-01T01:27:47;4.60;99.90
20973;DHT22;10645;52.370;13.314;2023-02-01T01:30:13;4.60;99.90
20973;DHT22;10645;52.370;13.314;2023-02-01T01:32:39;4.50;99.90
20973;DHT22;10645;52.370;13.314;2023-02-01T01:35:06;4.60;99.90
20973;DHT22;10645;52.370;13.314;2023-02-01T01:37:32;4.70;99.90
20973;DHT22;10645;52.370;13.314;2023-02-01T01:39:58;4.70;99.90
20973;DHT22;10645;52.370;13.314;2023-02-01T01:42:24;4.70;99.90
20973;DHT22;10645;52.370;13.314;2023-02-01T01:45:05;4.70;99.90
20973;DHT22;10645;52.370;13.314;2023-02-01T01:47:44;4.70;99.90
20973;DHT22;10645;52.370;13.314;2023-02-01T01:50:16;4.70;99.90
20973;DHT22;10645;52.370;13.314;2023-02-01T01:52:46;4.80;99.90
20973;DHT22;10645;52.370;13.314;2023-02-01T01:55:15;4.80;99.90
20973;DHT22;10645;52.370;13.314;2023-02-01T01:57:50;4.80;99.90
20973;DHT22;10645;52.370;13.314;2023-02-01T02:00:19;4.70;99.90
20973;DHT22;10645;52.370;13.314;2023-02-01T02:02:49;4.70;99.90
20973;DHT22;10645;52.370;13.314;2023-02-01T02:05:19;4.70;99.90
20973;DHT22;10645;52.370;13.314;2023-02-01T02:07:48;4.70;99.90
20973;DHT22;10645;52.370;13.314;2023-02-01T02:10:15;4.70;99.90
20973;DHT22;10645;52.370;13.314;2023-02-01T02:12:44;4.70;99.90
20973;DHT22;10645;52.370;13.314;2023-02-01T02:15:12;4.70;99.90
20973;DHT22;10645;52.370;13.314;2023-02-01T02:20:54;4.60;99.90
20973;DHT22;10645;52.370;13.314;2023-02-01T02:23:37;4.60;99.90
20973;DHT22;10645;52.370;13.314;2023-02-01T02:26:25;4.60;99.90
20973;DHT22;10645;52.370;13.314;2023-02-01T02:29:14;4.60;99.90
20973;DHT22;10645;52.370;13.314;2023-02-01T02:31:54;4.50;99.90
20973;DHT22;10645;52.370;13.314;2023-02-01T02:37:15;4.60;99.90
20973;DHT22;10645;52.370;13.314;2023-02-01T02:40:15;4.60;99.90
20973;DHT22;10645;52.370;13.314;2023-02-01T02:42:56;4.60;99.90
20973;DHT22;10645;52.370;13.314;2023-02-01T02:45:51;4.50;99.90
20973;DHT22;10645;52.370;13.314;2023-02-01T02:48:46;4.60;99.90
20973;DHT22;10645;52.370;13.314;2023-02-01T02:51:20;4.70;99.90
20973;DHT22;10645;52.370;13.314;2023-02-01T02:54:21;4.70;99.90
20973;DHT22;10645;52.370;13.314;2023-02-01T02:57:09;4.80;99.90
20973;DHT22;10645;52.370;13.314;2023-02-01T03:00:00;4.80;99.90
20973;DHT22;10645;52.370;13.314;2023-02-01T03:02:46;4.80;99.90
20973;DHT22;10645;52.370;13.314;2023-02-01T03:05:33;4.80;99.90
20973;DHT22;10645;52.370;13.314;2023-02-01T03:08:09;4.80;99.90
20973;DHT22;10645;52.370;13.314;2023-02-01T03:16:04;4.80;99.90
20973;DHT22;10645;52.370;13.314;2023-02-01T03:18:47;4.80;99.90
20973;DHT22;10645;52.370;13.314;2023-02-01T03:21:22;4.80;99.90
20973;DHT22;10645;52.370;13.314;2023-02-01T03:23:49;4.80;99.90
20973;DHT22;10645;52.370;13.314;2023-02-01T03:26:19;4.80;99.90
20973;DHT22;10645;52.370;13.314;2023-02-01T03:28:54;4.80;99.90
20973;DHT22;10645;52.370;13.314;2023-02-01T03:31:22;4.80;99.90
20973;DHT22;10645;52.370;13.314;2023-02-01T03:33:48;4.80;99.90
20973;DHT22;10645;52.370;13.314;2023-02-01T03:36:30;4.80;99.90
20973;DHT22;10645;52.370;13.314;2023-02-01T03:39:25;4.80;99.90
20973;DHT22;10645;52.370;13.314;2023-02-01T03:41:57;4.70;99.90
20973;DHT22;10645;52.370;13.314;2023-02-01T03:44:32;4.80;99.90
20973;DHT22;10645;52.370;13.314;2023-02-01T03:47:14;4.70;99.90
20973;DHT22;10645;52.370;13.314;2023-02-01T03:49:44;4.70;99.90
20973;DHT22;10645;52.370;13.314;2023-02-01T03:52:14;4.70;99.90
20973;DHT22;10645;52.370;13.314;2023-02-01T03:54:42;4.70;99.90
20973;DHT22;10645;52.370;13.314;2023-02-01T03:57:12;4.70;99.90
20973;DHT22;10645;52.370;13.314;2023-02-01T03:59:41;4.70;99.90
20973;DHT22;10645;52.370;13.314;2023-02-01T04:02:07;4.70;99.90
20973;DHT22;10645;52.370;13.314;2023-02-01T04:04:34;4.80;99.90
20973;DHT22;10645;52.370;13.314;2023-02-01T04:07:00;4.90;99.90
20973;DHT22;10645;52.370;13.314;2023-02-01T04:09:26;4.90;99.90
20973;DHT22;10645;52.370;13.314;2023-02-01T04:11:53;4.90;99.90
20973;DHT22;10645;52.370;13.314;2023-02-01T04:14:19;4.90;99.90
20973;DHT22;10645;52.370;13.314;2023-02-01T04:16:45;4.90;99.90
20973;DHT22;10645;52.370;13.314;2023-02-01T04:19:11;4.90;99.90
20973;DHT22;10645;52.370;13.314;2023-02-01T04:21:37;4.90;99.90
20973;DHT22;10645;52.370;13.314;2023-02-01T04:24:04;4.90;99.90
20973;DHT22;10645;52.370;13.314;2023-02-01T04:26:30;5.00;99.90
20973;DHT22;10645;52.370;13.314;2023-02-01T04:28:56;5.00;99.90
20973;DHT22;10645;52.370;13.314;2023-02-01T04:31:22;5.00;99.90
20973;DHT22;10645;52.370;13.314;2023-02-01T04:33:55;5.00;99.90
20973;DHT22;10645;52.370;13.314;2023-02-01T04:36:24;5.10;99.90
20973;DHT22;10645;52.370;13.314;2023-02-01T04:38:51;5.10;99.90
20973;DHT22;10645;52.370;13.314;2023-02-01T04:41:17;5.10;99.90
20973;DHT22;10645;52.370;13.314;2023-02-01T04:43:46;5.10;99.90
20973;DHT22;10645;52.370;13.314;2023-02-01T04:46:13;5.20;99.90
20973;DHT22;10645;52.370;13.314;2023-02-01T04:48:39;5.20;99.90
20973;DHT22;10645;52.370;13.314;2023-02-01T04:51:05;5.20;99.90
20973;DHT22;10645;52.370;13.314;2023-02-01T04:53:31;5.20;99.90
20973;DHT22;10645;52.370;13.314;2023-02-01T04:55:57;5.20;99.90
20973;DHT22;10645;52.370;13.314;2023-02-01T04:58:23;5.20;99.90
20973;DHT22;10645;52.370;13.314;2023-02-01T05:00:50;5.20;99.90
20973;DHT22;10645;52.370;13.314;2023-02-01T05:03:17;5.20;99.90
20973;DHT22;10645;52.370;13.314;2023-02-01T05:05:43;5.30;99.90
20973;DHT22;10645;52.370;13.314;2023-02-01T05:08:10;5.30;99.90
20973;DHT22;10645;52.370;13.314;2023-02-01T05:10:36;5.30;99.90
20973;DHT22;10645;52.370;13.314;2023-02-01T05:13:02;5.20;99.90
20973;DHT22;10645;52.370;13.314;2023-02-01T05:15:46;5.20;99.90
20973;DHT22;10645;52.370;13.314;2023-02-01T05:18:12;5.20;99.90
20973;DHT22;10645;52.370;13.314;2023-02-01T05:20:39;5.20;99.90
20973;DHT22;10645;52.370;13.314;2023-02-01T05:23:05;5.20;99.90
20973;DHT22;10645;52.370;13.314;2023-02-01T05:25:31;5.20;99.90
20973;DHT22;10645;52.370;13.314;2023-02-01T05:27:57;5.20;99.90
20973;DHT22;10645;52.370;13.314;2023-02-01T05:30:23;5.20;99.90
20973;DHT22;10645;52.370;13.314;2023-02-01T05:32:51;5.20;99.90
20973;DHT22;10645;52.370;13.314;2023-02-01T05:35:17;5.30;99.90
20973;DHT22;10645;52.370;13.314;2023-02-01T05:37:43;5.30;99.90
20973;DHT22;10645;52.370;13.314;2023-02-01T05:40:10;5.30;99.90
20973;DHT22;10645;52.370;13.314;2023-02-01T05:42:36;5.30;99.90
20973;DHT22;10645;52.370;13.314;2023-02-01T05:45:03;5.30;99.90
20973;DHT22;10645;52.370;13.314;2023-02-01T05:47:31;5.20;99.90
20973;DHT22;10645;52.370;13.314;2023-02-01T05:49:57;5.30;99.90
20973;DHT22;10645;52.370;13.314;2023-02-01T05:52:23;5.20;99.90
20973;DHT22;10645;52.370;13.314;2023-02-01T05:54:49;5.20;99.90
20973;DHT22;10645;52.370;13.314;2023-02-01T05:57:15;5.20;99.90
20973;DHT22;10645;52.370;13.314;2023-02-01T05:59:41;5.20;99.90
20973;DHT22;10645;52.370;13.314;2023-02-01T06:02:11;5.20;99.90
20973;DHT22;10645;52.370;13.314;2023-02-01T06:04:37;5.20;99.90
20973;DHT22;10645;52.370;13.314;2023-02-01T06:07:04;5.20;99.90
20973;DHT22;10645;52.370;13.314;2023-02-01T06:09:30;5.20;99.90
20973;DHT22;10645;52.370;13.314;2023-02-01T06:11:56;5.20;99.90
20973;DHT22;10645;52.370;13.314;2023-02-01T06:14:22;5.20;99.90
20973;DHT22;10645;52.370;13.314;2023-02-01T06:16:48;5.20;99.90
20973;DHT22;10645;52.370;13.314;2023-02-01T06:19:14;5.20;99.90
20973;DHT22;10645;52.370;13.314;2023-02-01T06:21:40;5.20;99.90
20973;DHT22;10645;52.370;13.314;2023-02-01T06:24:06;5.20;99.90
20973;DHT22;10645;52.370;13.314;2023-02-01T06:26:32;5.20;99.90
20973;DHT22;10645;52.370;13.314;2023-02-01T06:28:59;5.20;99.90
20973;DHT22;10645;52.370;13.314;2023-02-01T06:31:25;5.20;99.90
20973;DHT22;10645;52.370;13.314;2023-02-01T06:33:52;5.20;99.90
20973;DHT22;10645;52.370;13.314;2023-02-01T06:36:19;5.20;99.90
20973;DHT22;10645;52.370;13.314;2023-02-01T06:38:47;5.20;99.90
20973;DHT22;10645;52.370;13.314;2023-02-01T06:41:13;5.20;99.90
20973;DHT22;10645;52.370;13.314;2023-02-01T06:43:40;5.20;99.90
20973;DHT22;10645;52.370;13.314;2023-02-01T06:46:08;5.20;99.90
20973;DHT22;10645;52.370;13.314;2023-02-01T06:48:35;5.20;99.90
20973;DHT22;10645;52.370;13.314;2023-02-01T06:51:01;5.20;99.90
20973;DHT22;10645;52.370;13.314;2023-02-01T06:53:27;5.20;99.90
20973;DHT22;10645;52.370;13.314;2023-02-01T06:56:01;5.20;99.90
20973;DHT22;10645;52.370;13.314;2023-02-01T06:58:30;5.10;99.90
20973;DHT22;10645;52.370;13.314;2023-02-01T07:00:56;5.20;99.90
20973;DHT22;10645;52.370;13.314;2023-02-01T07:03:22;5.10;99.90
20973;DHT22;10645;52.370;13.314;2023-02-01T07:05:49;5.10;99.90
20973;DHT22;10645;52.370;13.314;2023-02-01T07:08:15;5.20;99.90
20973;DHT22;10645;52.370;13.314;2023-02-01T07:10:41;5.20;99.90
20973;DHT22;10645;52.370;13.314;2023-02-01T07:13:07;5.20;99.90
20973;DHT22;10645;52.370;13.314;2023-02-01T07:15:33;5.20;99.90
20973;DHT22;10645;52.370;13.314;2023-02-01T07:17:59;5.20;99.90
20973;DHT22;10645;52.370;13.314;2023-02-01T07:20:25;5.20;99.90
20973;DHT22;10645;52.370;13.314;2023-02-01T07:22:56;5.20;99.90
20973;DHT22;10645;52.370;13.314;2023-02-01T07:25:23;5.20;99.90
20973;DHT22;10645;52.370;13.314;2023-02-01T07:27:49;5.20;99.90
20973;DHT22;10645;52.370;13.314;2023-02-01T07:30:15;5.20;99.90
20973;DHT22;10645;52.370;13.314;2023-02-01T07:32:41;5.20;99.90
20973;DHT22;10645;52.370;13.314;2023-02-01T07:35:07;5.30;99.90
20973;DHT22;10645;52.370;13.314;2023-02-01T07:37:33;5.30;99.90
20973;DHT22;10645;52.370;13.314;2023-02-01T07:40:00;5.30;99.90
20973;DHT22;10645;52.370;13.314;2023-02-01T07:42:26;5.20;99.90
20973;DHT22;10645;52.370;13.314;2023-02-01T07:44:52;5.20;99.90
20973;DHT22;10645;52.370;13.314;2023-02-01T07:47:18;5.00;99.90
20973;DHT22;10645;52.370;13.314;2023-02-01T07:49:44;4.90;99.90
20973;DHT22;10645;52.370;13.314;2023-02-01T07:52:10;4.80;99.90
20973;DHT22;10645;52.370;13.314;2023-02-01T07:54:38;4.70;99.90
20973;DHT22;10645;52.370;13.314;2023-02-01T07:57:04;4.60;99.90
20973;DHT22;10645;52.370;13.314;2023-02-01T07:59:30;4.60;99.90
20973;DHT22;10645;52.370;13.314;2023-02-01T08:01:57;4.60;99.90
20973;DHT22;10645;52.370;13.314;2023-02-01T08:04:23;4.50;99.90
20973;DHT22;10645;52.370;13.314;2023-02-01T08:06:49;4.40;99.90
20973;DHT22;10645;52.370;13.314;2023-02-01T08:09:15;4.40;99.90
20973;DHT22;10645;52.370;13.314;2023-02-01T08:11:41;4.40;99.90
20973;DHT22;10645;52.370;13.314;2023-02-01T08:14:07;4.30;99.90
20973;DHT22;10645;52.370;13.314;2023-02-01T08:16:34;4.30;99.90
20973;DHT22;10645;52.370;13.314;2023-02-01T08:19:02;4.30;99.90
20973;DHT22;10645;52.370;13.314;2023-02-01T08:21:28;4.20;99.90
20973;DHT22;10645;52.370;13.314;2023-02-01T08:24:06;4.20;99.90
20973;DHT22;10645;52.370;13.314;2023-02-01T08:26:32;4.10;99.90
20973;DHT22;10645;52.370;13.314;2023-02-01T08:29:01;4.20;99.90
20973;DHT22;10645;52.370;13.314;2023-02-01T08:31:28;4.10;99.90
20973;DHT22;10645;52.370;13.314;2023-02-01T08:33:57;4.10;99.90
20973;DHT22;10645;52.370;13.314;2023-02-01T08:36:24;4.20;99.90
20973;DHT22;10645;52.370;13.314;2023-02-01T08:38:51;4.20;99.90
20973;DHT22;10645;52.370;13.314;2023-02-01T08:41:20;4.20;99.90
20973;DHT22;10645;52.370;13.314;2023-02-01T08:43:46;4.20;99.90
20973;DHT22;10645;52.370;13.314;2023-02-01T08:46:13;4.30;99.90
20973;DHT22;10645;52.370;13.314;2023-02-01T08:48:40;4.30;99.90
20973;DHT22;10645;52.370;13.314;2023-02-01T08:51:08;4.30;99.90
20973;DHT22;10645;52.370;13.314;2023-02-01T08:53:36;4.30;99.90
20973;DHT22;10645;52.370;13.314;2023-02-01T08:56:03;4.30;99.90
20973;DHT22;10645;52.370;13.314;2023-02-01T08:58:29;4.30;99.90
20973;DHT22;10645;52.370;13.314;2023-02-01T09:00:55;4.20;99.90
20973;DHT22;10645;52.370;13.314;2023-02-01T09:03:22;4.20;99.90
20973;DHT22;10645;52.370;13.314;2023-02-01T09:05:48;4.20;99.90
20973;DHT22;10645;52.370;13.314;2023-02-01T09:08:14;4.30;99.90
20973;DHT22;10645;52.370;13.314;2023-02-01T09:10:41;4.20;99.90
20973;DHT22;10645;52.370;13.314;2023-02-01T09:13:08;4.30;99.90
20973;DHT22;10645;52.370;13.314;2023-02-01T09:15:34;4.20;99.90
20973;DHT22;10645;52.370;13.314;2023-02-01T09:18:00;4.30;99.90
20973;DHT22;10645;52.370;13.314;2023-02-01T09:20:26;4.30;99.90
20973;DHT22;10645;52.370;13.314;2023-02-01T09:22:54;4.30;99.90
20973;DHT22;10645;52.370;13.314;2023-02-01T09:25:20;4.30;99.90
20973;DHT22;10645;52.370;13.314;2023-02-01T09:27:46;4.40;99.90
20973;DHT22;10645;52.370;13.314;2023-02-01T09:30:12;4.40;99.90
20973;DHT22;10645;52.370;13.314;2023-02-01T09:32:38;4.40;99.90
20973;DHT22;10645;52.370;13.314;2023-02-01T09:35:05;4.40;99.90
20973;DHT22;10645;52.370;13.314;2023-02-01T09:37:31;4.50;99.90
20973;DHT22;10645;52.370;13.314;2023-02-01T09:39:58;4.50;99.90
20973;DHT22;10645;52.370;13.314;2023-02-01T09:42:55;4.50;99.90
20973;DHT22;10645;52.370;13.314;2023-02-01T09:45:53;4.40;99.90
20973;DHT22;10645;52.370;13.314;2023-02-01T09:48:26;4.50;99.90
20973;DHT22;10645;52.370;13.314;2023-02-01T09:50:56;4.50;99.90
20973;DHT22;10645;52.370;13.314;2023-02-01T09:53:29;4.50;99.90
20973;DHT22;10645;52.370;13.314;2023-02-01T09:56:03;4.50;99.90
20973;DHT22;10645;52.370;13.314;2023-02-01T09:58:37;4.60;99.90
20973;DHT22;10645;52.370;13.314;2023-02-01T10:01:09;4.60;99.90
20973;DHT22;10645;52.370;13.314;2023-02-01T10:03:36;4.60;99.90
20973;DHT22;10645;52.370;13.314;2023-02-01T10:12:13;4.70;99.90
20973;DHT22;10645;52.370;13.314;2023-02-01T10:20:29;4.70;99.90
20973;DHT22;10645;52.370;13.314;2023-02-01T10:26:20;4.80;99.90
20973;DHT22;10645;52.370;13.314;2023-02-01T10:28:50;4.90;99.90
20973;DHT22;10645;52.370;13.314;2023-02-01T10:31:17;4.90;99.90
20973;DHT22;10645;52.370;13.314;2023-02-01T10:33:50;5.00;99.90
20973;DHT22;10645;52.370;13.314;2023-02-01T10:36:22;5.00;99.90
20973;DHT22;10645;52.370;13.314;2023-02-01T10:38:49;5.00;99.90
20973;DHT22;10645;52.370;13.314;2023-02-01T10:41:19;5.00;99.90
20973;DHT22;10645;52.370;13.314;2023-02-01T10:43:48;5.00;99.90
20973;DHT22;10645;52.370;13.314;2023-02-01T10:46:16;5.00;99.90
20973;DHT22;10645;52.370;13.314;2023-02-01T10:48:43;5.10;99.90
20973;DHT22;10645;52.370;13.314;2023-02-01T10:51:19;5.20;99.90
20973;DHT22;10645;52.370;13.314;2023-02-01T10:53:55;5.30;99.90
20973;DHT22;10645;52.370;13.314;2023-02-01T10:56:25;5.40;99.90
20973;DHT22;10645;52.370;13.314;2023-02-01T10:58:51;5.50;99.90
20973;DHT22;10645;52.370;13.314;2023-02-01T11:01:20;5.70;99.90
20973;DHT22;10645;52.370;13.314;2023-02-01T11:03:58;5.90;99.90
20973;DHT22;10645;52.370;13.314;2023-02-01T11:06:31;5.80;99.90
20973;DHT22;10645;52.370;13.314;2023-02-01T11:09:09;5.80;99.90
20973;DHT22;10645;52.370;13.314;2023-02-01T11:14:38;5.80;99.90
20973;DHT22;10645;52.370;13.314;2023-02-01T11:17:20;5.90;99.90
20973;DHT22;10645;52.370;13.314;2023-02-01T11:20:00;6.10;99.90
20973;DHT22;10645;52.370;13.314;2023-02-01T11:22:27;6.10;99.90
20973;DHT22;10645;52.370;13.314;2023-02-01T11:24:55;6.10;99.90
20973;DHT22;10645;52.370;13.314;2023-02-01T11:27:23;6.10;99.90
20973;DHT22;10645;52.370;13.314;2023-02-01T11:29:52;6.10;99.90
20973;DHT22;10645;52.370;13.314;2023-02-01T11:32:20;6.10;99.90
20973;DHT22;10645;52.370;13.314;2023-02-01T11:34:55;6.20;99.90
20973;DHT22;10645;52.370;13.314;2023-02-01T11:37:26;6.30;99.90
20973;DHT22;10645;52.370;13.314;2023-02-01T11:40:44;6.30;99.90
20973;DHT22;10645;52.370;13.314;2023-02-01T11:42:57;6.30;99.90
20973;DHT22;10645;52.370;13.314;2023-02-01T11:45:28;6.30;99.90
20973;DHT22;10645;52.370;13.314;2023-02-01T11:47:55;6.40;99.90
20973;DHT22;10645;52.370;13.314;2023-02-01T11:53:25;6.30;99.90
20973;DHT22;10645;52.370;13.314;2023-02-01T11:59:17;6.20;99.90
20973;DHT22;10645;52.370;13.314;2023-02-01T12:05:23;6.40;99.90
20973;DHT22;10645;52.370;13.314;2023-02-01T12:13:38;6.70;99.90
20973;DHT22;10645;52.370;13.314;2023-02-01T12:16:35;6.90;99.90
20973;DHT22;10645;52.370;13.314;2023-02-01T12:22:02;7.30;99.90
20973;DHT22;10645;52.370;13.314;2023-02-01T12:24:51;7.20;99.90
20973;DHT22;10645;52.370;13.314;2023-02-01T12:27:45;7.10;99.90
20973;DHT22;10645;52.370;13.314;2023-02-01T12:35:36;7.10;99.90
20973;DHT22;10645;52.370;13.314;2023-02-01T12:41:33;7.00;99.90
20973;DHT22;10645;52.370;13.314;2023-02-01T12:44:04;7.00;99.90
20973;DHT22;10645;52.370;13.314;2023-02-01T12:46:52;7.00;99.90
20973;DHT22;10645;52.370;13.314;2023-02-01T12:49:41;7.00;99.90
20973;DHT22;10645;52.370;13.314;2023-02-01T12:52:20;6.90;99.90
20973;DHT22;10645;52.370;13.314;2023-02-01T12:54:53;6.90;99.90
20973;DHT22;10645;52.370;13.314;2023-02-01T12:57:26;6.80;99.90
20973;DHT22;10645;52.370;13.314;2023-02-01T13:00:15;6.80;99.90
20973;DHT22;10645;52.370;13.314;2023-02-01T13:05:50;6.70;99.90
20973;DHT22;10645;52.370;13.314;2023-02-01T13:08:25;6.60;99.90
20973;DHT22;10645;52.370;13.314;2023-02-01T13:11:04;6.50;99.90
20973;DHT22;10645;52.370;13.314;2023-02-01T13:16:36;6.50;99.90
20973;DHT22;10645;52.370;13.314;2023-02-01T13:22:10;6.60;99.90
20973;DHT22;10645;52.370;13.314;2023-02-01T13:24:51;6.60;99.90
20973;DHT22;10645;52.370;13.314;2023-02-01T13:27:19;6.50;99.90
20973;DHT22;10645;52.370;13.314;2023-02-01T13:35:54;6.60;99.90
20973;DHT22;10645;52.370;13.314;2023-02-01T13:38:47;6.60;99.90
20973;DHT22;10645;52.370;13.314;2023-02-01T13:41:31;6.60;99.90
20973;DHT22;10645;52.370;13.314;2023-02-01T13:44:10;6.60;99.90
20973;DHT22;10645;52.370;13.314;2023-02-01T13:46:43;6.70;99.90
20973;DHT22;10645;52.370;13.314;2023-02-01T13:49:23;6.60;99.90
20973;DHT22;10645;52.370;13.314;2023-02-01T13:51:53;6.60;99.90
20973;DHT22;10645;52.370;13.314;2023-02-01T13:54:33;6.60;99.90
20973;DHT22;10645;52.370;13.314;2023-02-01T13:57:02;6.70;99.90
20973;DHT22;10645;52.370;13.314;2023-02-01T14:05:11;6.70;99.90
20973;DHT22;10645;52.370;13.314;2023-02-01T14:10:56;6.60;99.90
20973;DHT22;10645;52.370;13.314;2023-02-01T14:13:40;6.50;99.90
20973;DHT22;10645;52.370;13.314;2023-02-01T14:16:13;6.50;99.90
20973;DHT22;10645;52.370;13.314;2023-02-01T14:18:49;6.40;99.90
20973;DHT22;10645;52.370;13.314;2023-02-01T14:21:29;6.40;99.90
20973;DHT22;10645;52.370;13.314;2023-02-01T14:26:55;6.40;99.90
20973;DHT22;10645;52.370;13.314;2023-02-01T14:29:33;6.40;99.90
20973;DHT22;10645;52.370;13.314;2023-02-01T14:32:06;6.40;99.90
20973;DHT22;10645;52.370;13.314;2023-02-01T14:42:38;6.50;99.90
20973;DHT22;10645;52.370;13.314;2023-02-01T14:53:10;6.40;99.90
20973;DHT22;10645;52.370;13.314;2023-02-01T14:56:05;6.40;99.90
20973;DHT22;10645;52.370;13.314;2023-02-01T14:58:56;6.40;99.90
20973;DHT22;10645;52.370;13.314;2023-02-01T15:01:32;6.40;99.90
20973;DHT22;10645;52.370;13.314;2023-02-01T15:04:11;6.40;99.90
20973;DHT22;10645;52.370;13.314;2023-02-01T15:06:41;6.30;99.90
20973;DHT22;10645;52.370;13.314;2023-02-01T15:09:23;6.10;99.90
20973;DHT22;10645;52.370;13.314;2023-02-01T15:14:44;5.50;99.90
20973;DHT22;10645;52.370;13.314;2023-02-01T15:17:21;5.30;99.90
20973;DHT22;10645;52.370;13.314;2023-02-01T15:19:57;5.20;99.90
20973;DHT22;10645;52.370;13.314;2023-02-01T15:22:24;5.10;99.90
20973;DHT22;10645;52.370;13.314;2023-02-01T15:24:55;5.00;99.90
20973;DHT22;10645;52.370;13.314;2023-02-01T15:27:22;4.90;99.90
20973;DHT22;10645;52.370;13.314;2023-02-01T15:29:48;4.80;99.90
20973;DHT22;10645;52.370;13.314;2023-02-01T15:32:36;4.80;99.90
20973;DHT22;10645;52.370;13.314;2023-02-01T15:35:04;4.70;99.90
20973;DHT22;10645;52.370;13.314;2023-02-01T15:37:31;4.60;99.90
20973;DHT22;10645;52.370;13.314;2023-02-01T15:42:57;4.40;99.90
20973;DHT22;10645;52.370;13.314;2023-02-01T15:45:29;4.40;99.90
20973;DHT22;10645;52.370;13.314;2023-02-01T15:47:58;4.40;99.90
20973;DHT22;10645;52.370;13.314;2023-02-01T15:50:27;4.30;99.90
20973;DHT22;10645;52.370;13.314;2023-02-01T15:52:54;4.30;99.90
20973;DHT22;10645;52.370;13.314;2023-02-01T15:55:36;4.30;99.90
20973;DHT22;10645;52.370;13.314;2023-02-01T15:58:08;4.30;99.90
20973;DHT22;10645;52.370;13.314;2023-02-01T16:00:50;4.30;99.90
20973;DHT22;10645;52.370;13.314;2023-02-01T16:06:00;4.20;99.90
20973;DHT22;10645;52.370;13.314;2023-02-01T16:08:28;4.30;99.90
20973;DHT22;10645;52.370;13.314;2023-02-01T16:11:01;4.20;99.90
20973;DHT22;10645;52.370;13.314;2023-02-01T16:13:27;4.20;99.90
20973;DHT22;10645;52.370;13.314;2023-02-01T16:15:53;4.10;99.90
20973;DHT22;10645;52.370;13.314;2023-02-01T16:18:20;3.80;99.90
20973;DHT22;10645;52.370;13.314;2023-02-01T16:20:47;3.50;99.90
20973;DHT22;10645;52.370;13.314;2023-02-01T16:23:13;3.20;99.90
20973;DHT22;10645;52.370;13.314;2023-02-01T16:25:40;3.10;99.90
20973;DHT22;10645;52.370;13.314;2023-02-01T16:28:06;3.00;99.90
20973;DHT22;10645;52.370;13.314;2023-02-01T16:30:32;2.90;99.90
20973;DHT22;10645;52.370;13.314;2023-02-01T16:33:00;2.80;99.90
20973;DHT22;10645;52.370;13.314;2023-02-01T16:35:31;2.70;99.90
20973;DHT22;10645;52.370;13.314;2023-02-01T16:38:05;2.60;99.90
20973;DHT22;10645;52.370;13.314;2023-02-01T16:40:39;2.60;99.90
20973;DHT22;10645;52.370;13.314;2023-02-01T16:43:12;2.60;99.90
20973;DHT22;10645;52.370;13.314;2023-02-01T16:45:39;2.60;99.90
20973;DHT22;10645;52.370;13.314;2023-02-01T16:48:06;2.60;99.90
20973;DHT22;10645;52.370;13.314;2023-02-01T16:50:33;2.60;99.90
20973;DHT22;10645;52.370;13.314;2023-02-01T16:53:01;2.70;99.90
20973;DHT22;10645;52.370;13.314;2023-02-01T16:55:27;2.70;99.90
20973;DHT22;10645;52.370;13.314;2023-02-01T16:57:53;2.80;99.90
20973;DHT22;10645;52.370;13.314;2023-02-01T17:00:19;2.90;99.90
20973;DHT22;10645;52.370;13.314;2023-02-01T17:02:46;2.90;99.90
20973;DHT22;10645;52.370;13.314;2023-02-01T17:05:12;3.00;99.90
20973;DHT22;10645;52.370;13.314;2023-02-01T17:07:39;3.00;99.90
20973;DHT22;10645;52.370;13.314;2023-02-01T17:10:08;3.10;99.90
20973;DHT22;10645;52.370;13.314;2023-02-01T17:12:40;3.10;99.90
20973;DHT22;10645;52.370;13.314;2023-02-01T17:15:07;3.20;99.90
20973;DHT22;10645;52.370;13.314;2023-02-01T17:17:36;3.20;99.90
20973;DHT22;10645;52.370;13.314;2023-02-01T17:20:04;3.30;99.90
20973;DHT22;10645;52.370;13.314;2023-02-01T17:22:32;3.30;99.90
20973;DHT22;10645;52.370;13.314;2023-02-01T17:24:58;3.30;99.90
20973;DHT22;10645;52.370;13.314;2023-02-01T17:27:24;3.40;99.90
20973;DHT22;10645;52.370;13.314;2023-02-01T17:29:50;3.40;99.90
20973;DHT22;10645;52.370;13.314;2023-02-01T17:32:22;3.40;99.90
20973;DHT22;10645;52.370;13.314;2023-02-01T17:34:48;3.50;99.90
20973;DHT22;10645;52.370;13.314;2023-02-01T17:37:25;3.50;99.90
20973;DHT22;10645;52.370;13.314;2023-02-01T17:39:51;3.50;99.90